»·PEaware :: JUS326 KDEN-KGJT

JUS326 :: KDEN-KGJT

FLIGHT INFORMATION

Flight Status: Arrived
Operator:
USA Jet
More flights by this operator :: More flights under this callsign
Pilot: Erik S. (3779)
Aircraft: BOEING 737-300
(B733)
More flights by this aircraft type
Origin: KDEN Denver Intl
United States
Destination: KGJT Walker
United States
More flights between these airports :: More routes between these airports
Route: +CONNR4 DBL JNC
File this flight plan on PilotEdge
Remarks:
Altitude:
(Current/Filed)
28,000ft
Speed:
(Current/Filed)
450kts
Departed: 02-Nov-17 11:53 AM
Arrived: 02-Nov-17 12:32 PM
Distance/Time
Traveled:
184nm/0:39
Distance/Time
To Go:
Arrived

Flight Plot

Page will automatically refresh every two minutes.

Flight plan parsing failed; only flown route is shown


Map Options




Map Legend


Flown Route
Filed Route
Departure Airport
Arrival Airport
Navaid (VOR, NDB)
Fix

Horizontal Profiles

Position Reports

Time Latitude Longitude Heading Altitude Ground
Speed
02-Nov-17 11:49 39.839410 -104.665590 248 5438ft 0kts
02-Nov-17 11:50 39.839410 -104.665590 248 5438ft 0kts
02-Nov-17 11:51 39.839410 -104.665590 248 5438ft 0kts
02-Nov-17 11:52 39.839537 -104.665181 247 5438ft 0kts
02-Nov-17 11:53 39.839722 -104.664620 241 5438ft 0kts
02-Nov-17 11:54 39.839572 -104.664826 215 5438ft 3kts
02-Nov-17 11:55 39.839874 -104.662646 163 5438ft 14kts
02-Nov-17 11:56 39.833989 -104.662666 181 5438ft 27kts
02-Nov-17 11:57 39.828412 -104.661616 87 5438ft 13kts
02-Nov-17 11:58 39.850207 -104.659955 0 5786ft 184kts
02-Nov-17 11:59 39.878839 -104.706207 265 8273ft 229kts
02-Nov-17 12:00 39.869594 -104.800200 263 10742ft 303kts
02-Nov-17 12:01 39.858026 -104.914382 257 14305ft 328kts
02-Nov-17 12:02 39.833740 -105.029903 256 17801ft 338kts
02-Nov-17 12:03 39.808495 -105.148709 256 20884ft 349kts
02-Nov-17 12:04 39.782270 -105.271445 256 23676ft 359kts
02-Nov-17 12:05 39.755246 -105.397299 256 26165ft 369kts
02-Nov-17 12:06 39.728527 -105.525658 256 27890ft 365kts
02-Nov-17 12:07 39.702072 -105.656872 257 27978ft 391kts
02-Nov-17 12:08 39.683322 -105.795719 262 27972ft 390kts
02-Nov-17 12:09 39.667693 -105.934930 262 27972ft 390kts
02-Nov-17 12:10 39.652065 -106.073889 262 27972ft 390kts
02-Nov-17 12:11 39.636773 -106.212592 262 27972ft 390kts
02-Nov-17 12:12 39.615406 -106.350179 250 27979ft 392kts
02-Nov-17 12:13 39.573955 -106.481129 249 27972ft 393kts
02-Nov-17 12:14 39.532030 -106.611709 249 27972ft 393kts
02-Nov-17 12:15 39.489966 -106.742074 249 27972ft 393kts
02-Nov-17 12:16 39.447766 -106.872250 249 27972ft 393kts
02-Nov-17 12:17 39.417699 -107.006663 257 27972ft 391kts
02-Nov-17 12:18 39.391821 -107.142456 257 27975ft 391kts
02-Nov-17 12:19 39.365631 -107.279359 257 26809ft 392kts
02-Nov-17 12:20 39.338794 -107.417139 257 24659ft 400kts
02-Nov-17 12:21 39.311733 -107.555006 257 23015ft 398kts
02-Nov-17 12:22 39.285037 -107.690141 257 20500ft 384kts
02-Nov-17 12:23 39.258862 -107.821780 257 17814ft 376kts
02-Nov-17 12:24 39.233313 -107.949425 257 15189ft 351kts
02-Nov-17 12:25 39.211383 -108.058210 257 14947ft 276kts
02-Nov-17 12:26 39.171739 -108.130427 219 14204ft 250kts
02-Nov-17 12:27 39.116011 -108.179312 219 13290ft 242kts
02-Nov-17 12:28 39.061368 -108.227698 219 12919ft 239kts
02-Nov-17 12:29 39.006128 -108.276710 219 12918ft 241kts
02-Nov-17 12:30 38.951269 -108.325283 219 12645ft 232kts
02-Nov-17 12:31 38.950939 -108.383784 338 11265ft 215kts
02-Nov-17 12:32 39.008771 -108.400652 342 9034ft 215kts
02-Nov-17 12:33 39.065011 -108.399180 315 7210ft 179kts
02-Nov-17 12:34 39.086938 -108.450098 301 5837ft 159kts
02-Nov-17 12:35 39.107985 -108.494267 296 5289ft 132kts
02-Nov-17 12:36 39.126170 -108.528291 305 4864ft 48kts
02-Nov-17 12:37 39.124971 -108.531313 216 4864ft 0kts
02-Nov-17 12:38 39.124971 -108.531313 216 4864ft 0kts
02-Nov-17 12:39 39.124971 -108.531313 216 4864ft 0kts
02-Nov-17 12:40 39.124971 -108.531313 216 4864ft 0kts
02-Nov-17 12:41 39.124971 -108.531313 216 4864ft 0kts
02-Nov-17 12:42 39.124971 -108.531313 216 4864ft 0kts
02-Nov-17 12:43 39.124971 -108.531313 216 4864ft 0kts
02-Nov-17 12:44 39.124971 -108.531313 216 4864ft 0kts
02-Nov-17 12:45 39.124971 -108.531313 216 4864ft 0kts
02-Nov-17 12:46 39.124971 -108.531313 216 4864ft 0kts
02-Nov-17 12:47 39.124971 -108.531313 216 4864ft 0kts
02-Nov-17 12:48 39.124971 -108.531313 216 4864ft 0kts
02-Nov-17 12:49 39.124971 -108.531313 216 4864ft 0kts
02-Nov-17 12:50 39.124971 -108.531313 216 4864ft 0kts
02-Nov-17 12:51 39.124971 -108.531313 216 4864ft 0kts

Navigation Log

Ident Type
Flight plan parsing failed, navigation log unavailable